createdAt,value
2022-11-28T00:01:29.243Z,95234.75
2022-11-28T00:03:55.952Z,95230.09
2022-11-28T00:06:22.837Z,95230.91
2022-11-28T00:08:49.690Z,95222.28
2022-11-28T00:11:17.115Z,95217.19
2022-11-28T00:13:44.555Z,95222.81
2022-11-28T00:16:15.803Z,95217.19
2022-11-28T00:18:42.449Z,95214.31
2022-11-28T00:21:11.757Z,95223.88
2022-11-28T00:23:39.116Z,95218.69
2022-11-28T00:26:10.811Z,95224.06
2022-11-28T00:28:37.436Z,95230.09
2022-11-28T00:31:04.782Z,95234.75
2022-11-28T00:33:34.704Z,95230.38
2022-11-28T00:36:02.882Z,95225.16
2022-11-28T00:38:30.360Z,95216.09
2022-11-28T00:41:24.120Z,95216.94
2022-11-28T00:43:51.693Z,95219.22
2022-11-28T00:46:19.504Z,95208.41
2022-11-28T00:48:46.175Z,95198.94
2022-11-28T00:51:18.189Z,95196.75
2022-11-28T00:53:47.838Z,95187.56
2022-11-28T00:56:16.664Z,95187.41
2022-11-28T00:58:44.435Z,95185.78
2022-11-28T01:01:14.808Z,95183.47
2022-11-28T01:03:41.803Z,95180.13
2022-11-28T01:06:11.009Z,95171.66
2022-11-28T01:08:37.913Z,95169.47
2022-11-28T01:11:10.972Z,95177.13
2022-11-28T01:13:37.517Z,95168.09
2022-11-28T01:16:04.202Z,95159.47
2022-11-28T01:18:30.784Z,95174.69
2022-11-28T01:20:57.852Z,95181.06
2022-11-28T01:23:24.380Z,95181.53
2022-11-28T01:25:50.950Z,95184.22
2022-11-28T01:28:17.523Z,95186.59
2022-11-28T01:30:44.146Z,95173.72
2022-11-28T01:33:10.673Z,95177.41
2022-11-28T01:35:37.201Z,95163.16
2022-11-28T01:38:03.750Z,95168.38
2022-11-28T01:40:30.288Z,95164.78
2022-11-28T01:42:56.820Z,95163.97
2022-11-28T01:45:33.633Z,95156.84
2022-11-28T01:48:02.971Z,95154.63
2022-11-28T01:50:32.993Z,95133.53
2022-11-28T01:53:04.275Z,95132.41
2022-11-28T01:55:35.393Z,95143.69
2022-11-28T01:58:02.036Z,95156.97
2022-11-28T02:00:28.559Z,95190.81
2022-11-28T02:03:03.668Z,95189.16
2022-11-28T02:05:30.194Z,95193.56
2022-11-28T02:07:56.803Z,95189.16
2022-11-28T02:10:26.836Z,95171.09
2022-11-28T02:13:19.091Z,95163.69
2022-11-28T02:16:10.521Z,95176.47
2022-11-28T02:18:50.697Z,95165.75
2022-11-28T02:21:43.235Z,95168.09
2022-11-28T02:24:31.462Z,95163.13
2022-11-28T02:27:25.991Z,95148.91
2022-11-28T02:30:01.544Z,95153.28
2022-11-28T02:32:34.712Z,95147.78
2022-11-28T02:35:04.287Z,95146.41
2022-11-28T02:37:54.228Z,95137.50
2022-11-28T02:41:07.348Z,95139.41
2022-11-28T02:44:04.449Z,95130.34
2022-11-28T02:46:32.257Z,95128.84
2022-11-28T02:49:04.360Z,95126.94
2022-11-28T02:52:15.095Z,95111.03
2022-11-28T02:54:42.956Z,95105.81
2022-11-28T02:57:09.904Z,95102.38
2022-11-28T02:59:39.186Z,95113.50
2022-11-28T03:02:15.260Z,95111.88
2022-11-28T03:05:07.630Z,95110.50
2022-11-28T03:07:58.231Z,95103.09
2022-11-28T03:10:30.553Z,95124.06
2022-11-28T03:13:49.479Z,95115.03
2022-11-28T03:16:31.054Z,95106.66
2022-11-28T03:19:33.207Z,95114.19
2022-11-28T03:22:38.949Z,95110.19
2022-11-28T03:25:20.580Z,95098.44
2022-11-28T03:28:02.130Z,95093.75
2022-11-28T03:30:36.592Z,95085.94
2022-11-28T03:33:05.900Z,95085.94
2022-11-28T03:35:43.173Z,95071.25
2022-11-28T03:38:17.710Z,95069.78
2022-11-28T03:40:49.113Z,95074.56
2022-11-28T03:43:20.384Z,95063.06
2022-11-28T03:45:54.853Z,95054.25
2022-11-28T03:48:39.192Z,95047.81
2022-11-28T03:51:12.159Z,95053.47
2022-11-28T03:53:50.211Z,95051.31
2022-11-28T03:56:22.493Z,95054.72
2022-11-28T03:58:59.675Z,95052.06
2022-11-28T04:01:29.719Z,95068.56
2022-11-28T04:04:17.941Z,95044.56
2022-11-28T04:06:58.232Z,95041.09
2022-11-28T04:09:43.679Z,95056.09
2022-11-28T04:12:21.558Z,95048.28
2022-11-28T04:14:53.841Z,95044.69
2022-11-28T04:17:32.561Z,95034.81
2022-11-28T04:20:18.656Z,95059.53
2022-11-28T04:22:50.893Z,95036.47
2022-11-28T04:25:22.040Z,95038.78
2022-11-28T04:28:02.827Z,95028.06
2022-11-28T04:30:29.549Z,95021.66
2022-11-28T04:33:01.442Z,95031.44
2022-11-28T04:35:36.740Z,95025.22
2022-11-28T04:38:07.492Z,95020.00
2022-11-28T04:40:41.393Z,95031.78
2022-11-28T04:43:18.356Z,95026.84
2022-11-28T04:45:51.243Z,95030.97
2022-11-28T04:48:18.479Z,95037.69
2022-11-28T04:51:06.460Z,95030.56
2022-11-28T04:53:44.430Z,95018.72
2022-11-28T04:56:21.619Z,95002.94
2022-11-28T04:58:50.615Z,94999.81
2022-11-28T05:01:38.112Z,95004.75
2022-11-28T05:04:04.839Z,95000.59
2022-11-28T05:06:34.414Z,95028.81
2022-11-28T05:09:00.959Z,95055.00
2022-11-28T05:11:28.171Z,95056.06
2022-11-28T05:13:55.328Z,95064.59
2022-11-28T05:16:22.714Z,95068.41
2022-11-28T05:18:50.301Z,95065.69
2022-11-28T05:21:16.899Z,95083.91
2022-11-28T05:23:44.611Z,95111.28
2022-11-28T05:26:17.507Z,95086.50
2022-11-28T05:28:49.650Z,95078.84
2022-11-28T05:31:17.473Z,95099.00
2022-11-28T05:33:44.081Z,95084.06
2022-11-28T05:36:13.312Z,95093.34
2022-11-28T05:38:40.374Z,95087.88
2022-11-28T05:41:07.161Z,95071.69
2022-11-28T05:43:34.267Z,95085.00
2022-11-28T05:46:00.979Z,95071.16
2022-11-28T05:48:27.610Z,95073.19
2022-11-28T05:50:54.148Z,95061.00
2022-11-28T05:53:20.673Z,95054.25
2022-11-28T05:55:47.221Z,95049.66
2022-11-28T05:58:13.785Z,95047.41
2022-11-28T06:00:40.300Z,95039.56
2022-11-28T06:03:06.944Z,95046.88
2022-11-28T06:05:43.279Z,95027.66
2022-11-28T06:08:14.070Z,95026.66
2022-11-28T06:10:40.967Z,95027.94
2022-11-28T06:13:07.845Z,95026.94
2022-11-28T06:15:37.976Z,95034.16
2022-11-28T06:18:05.846Z,95026.56
2022-11-28T06:20:34.793Z,95046.03
2022-11-28T06:23:01.456Z,95041.78
2022-11-28T06:25:28.128Z,95028.44
2022-11-28T06:27:54.613Z,95025.28
2022-11-28T06:30:21.148Z,95016.78
2022-11-28T06:32:47.773Z,95013.91
2022-11-28T06:35:14.307Z,95016.06
2022-11-28T06:37:40.867Z,95018.63
2022-11-28T06:40:07.850Z,95020.56
2022-11-28T06:42:37.844Z,95026.22
2022-11-28T06:45:05.363Z,95032.31
2022-11-28T06:47:32.124Z,95031.50
2022-11-28T06:49:58.617Z,95019.88
2022-11-28T06:52:25.203Z,95018.97
2022-11-28T06:54:51.722Z,95017.28
2022-11-28T06:57:18.252Z,95013.75
2022-11-28T06:59:45.065Z,95017.59
2022-11-28T07:02:11.816Z,95013.09
2022-11-28T07:04:38.428Z,95019.34
2022-11-28T07:07:04.922Z,95012.47
2022-11-28T07:09:31.499Z,95004.75
2022-11-28T07:11:58.018Z,95005.31
2022-11-28T07:14:24.615Z,95002.41
2022-11-28T07:16:51.230Z,95011.34
2022-11-28T07:19:23.091Z,95021.16
2022-11-28T07:21:50.190Z,95011.69
2022-11-28T07:24:19.790Z,95015.66
2022-11-28T07:26:46.804Z,95032.06
2022-11-28T07:29:18.974Z,95039.75
2022-11-28T07:31:45.573Z,95023.66
2022-11-28T07:34:12.404Z,95020.50
2022-11-28T07:36:38.916Z,95017.03
2022-11-28T07:39:08.608Z,95016.09
2022-11-28T07:41:35.433Z,95023.84
2022-11-28T07:44:03.721Z,95013.69
2022-11-28T07:46:31.553Z,95005.84
2022-11-28T07:48:58.231Z,95006.50
2022-11-28T07:51:27.805Z,94999.53
2022-11-28T07:53:54.385Z,94994.59
2022-11-28T07:56:23.550Z,94995.72
2022-11-28T07:58:50.174Z,94987.69
2022-11-28T08:01:18.189Z,94990.00
2022-11-28T08:03:45.998Z,94986.94
2022-11-28T08:06:14.146Z,94983.28
2022-11-28T08:08:40.744Z,94987.31
2022-11-28T08:11:09.395Z,94995.22
2022-11-28T08:13:37.393Z,95000.56
2022-11-28T08:16:09.704Z,94995.34
2022-11-28T08:18:36.735Z,95004.94
2022-11-28T08:21:15.098Z,95013.19
2022-11-28T08:23:42.417Z,95009.13
2022-11-28T08:26:11.357Z,95017.13
2022-11-28T08:28:37.927Z,95007.59
2022-11-28T08:31:21.532Z,94992.69
2022-11-28T08:33:49.469Z,94991.84
2022-11-28T08:36:17.540Z,94988.94
2022-11-28T08:39:02.932Z,94985.75
2022-11-28T08:41:32.722Z,94994.63
2022-11-28T08:43:59.306Z,94994.91
2022-11-28T08:46:25.854Z,94972.59
2022-11-28T08:48:52.695Z,94976.97
2022-11-28T08:51:21.115Z,94989.13
2022-11-28T08:53:49.472Z,94994.09
2022-11-28T08:56:16.599Z,95000.03
2022-11-28T08:58:43.320Z,94994.81
2022-11-28T09:01:18.629Z,94994.00
2022-11-28T09:03:45.540Z,94994.00
2022-11-28T09:06:12.268Z,95009.91
2022-11-28T09:08:39.014Z,95004.31
2022-11-28T09:11:09.689Z,95005.25
2022-11-28T09:13:37.346Z,95012.28
2022-11-28T09:16:04.632Z,95014.50
2022-11-28T09:18:31.213Z,95009.41
2022-11-28T09:20:59.523Z,95005.88
2022-11-28T09:23:26.602Z,95004.25
2022-11-28T09:25:53.096Z,95013.75
2022-11-28T09:28:19.621Z,95009.88
2022-11-28T09:30:46.230Z,95008.28
2022-11-28T09:33:13.367Z,95011.44
2022-11-28T09:35:40.494Z,95004.22
2022-11-28T09:38:07.258Z,95015.75
2022-11-28T09:40:40.220Z,95014.00
2022-11-28T09:43:15.500Z,95013.72
2022-11-28T09:45:44.636Z,95016.94
2022-11-28T09:48:28.620Z,95017.84
2022-11-28T09:51:00.635Z,95014.91
2022-11-28T09:53:36.481Z,95009.06
2022-11-28T09:56:14.423Z,95014.31
2022-11-28T09:59:00.594Z,95011.72
2022-11-28T10:01:32.458Z,95004.72
2022-11-28T10:04:09.413Z,94995.38
2022-11-28T10:07:00.276Z,94998.53
2022-11-28T10:09:48.356Z,95002.28
2022-11-28T10:12:36.545Z,94999.31
2022-11-28T10:15:25.080Z,94999.50
2022-11-28T10:18:06.944Z,94991.63
2022-11-28T10:20:41.470Z,94996.50
2022-11-28T10:23:35.079Z,95003.63
2022-11-28T10:26:09.401Z,94993.56
2022-11-28T10:28:38.467Z,94998.53
2022-11-28T10:31:15.880Z,94994.41
2022-11-28T10:33:52.003Z,95000.00
2022-11-28T10:36:39.216Z,95000.00
2022-11-28T10:39:11.845Z,94981.84
2022-11-28T10:42:14.056Z,94987.91
2022-11-28T10:44:59.261Z,94986.94
2022-11-28T10:47:41.067Z,94990.00
2022-11-28T10:50:19.887Z,94982.03
2022-11-28T10:53:13.425Z,94980.88
2022-11-28T10:55:48.645Z,94976.41
2022-11-28T10:58:32.605Z,94978.03
2022-11-28T11:01:00.254Z,94971.78
2022-11-28T11:03:32.678Z,94977.31
2022-11-28T11:06:00.216Z,94973.38
2022-11-28T11:08:29.410Z,94978.72
2022-11-28T11:11:07.206Z,94984.25
2022-11-28T11:13:53.478Z,94980.78
2022-11-28T11:16:20.014Z,94988.31
2022-11-28T11:18:47.101Z,94977.75
2022-11-28T11:21:18.815Z,94981.81
2022-11-28T11:23:47.292Z,94976.41
2022-11-28T11:26:24.929Z,94981.28
2022-11-28T11:28:52.267Z,94970.47
2022-11-28T11:31:25.922Z,94982.13
2022-11-28T11:34:06.704Z,94973.38
2022-11-28T11:36:37.728Z,94969.72
2022-11-28T11:39:11.875Z,94971.44
2022-11-28T11:41:40.919Z,94974.66
2022-11-28T11:44:13.655Z,94969.81
2022-11-28T11:46:54.617Z,94964.91
2022-11-28T11:49:28.378Z,94966.03
2022-11-28T11:51:59.998Z,94961.53
2022-11-28T11:54:27.016Z,94961.63
2022-11-28T11:57:11.188Z,94962.09
2022-11-28T11:59:48.022Z,94957.28
2022-11-28T12:02:33.328Z,94953.13
2022-11-28T12:05:13.309Z,94954.97
2022-11-28T12:07:50.784Z,94956.56
2022-11-28T12:10:21.175Z,94954.09
2022-11-28T12:12:47.770Z,94951.31
2022-11-28T12:15:21.347Z,94946.84
2022-11-28T12:18:09.786Z,94955.19
2022-11-28T12:20:51.631Z,94944.41
2022-11-28T12:23:21.100Z,94940.69
2022-11-28T12:25:57.281Z,94953.75
2022-11-28T12:28:55.643Z,94959.28
2022-11-28T12:31:52.714Z,94958.34
2022-11-28T12:34:37.938Z,94954.56
2022-11-28T12:37:19.593Z,94949.84
2022-11-28T12:40:13.604Z,94948.22
2022-11-28T12:43:05.914Z,94952.56
2022-11-28T12:45:38.488Z,94948.88
2022-11-28T12:48:23.579Z,94944.66
2022-11-28T12:51:02.786Z,94947.66
2022-11-28T12:53:45.434Z,94955.13
2022-11-28T12:56:37.374Z,94953.56
2022-11-28T12:59:34.741Z,94950.28
2022-11-28T13:02:24.486Z,94954.56
2022-11-28T13:05:05.345Z,94948.22
2022-11-28T13:07:55.580Z,94944.31
2022-11-28T13:10:43.945Z,94949.38
2022-11-28T13:13:18.340Z,94942.41
2022-11-28T13:16:03.629Z,94947.81
2022-11-28T13:18:44.182Z,94943.84
2022-11-28T13:21:31.905Z,94944.59
2022-11-28T13:24:09.356Z,94946.91
2022-11-28T13:27:09.396Z,94944.59
2022-11-28T13:29:59.721Z,94948.69
2022-11-28T13:32:29.176Z,94945.97
2022-11-28T13:34:56.426Z,94950.22
2022-11-28T13:40:26.625Z,94943.34
2022-11-28T13:43:12.488Z,94947.94
2022-11-28T13:45:43.475Z,94945.03
2022-11-28T13:49:13.075Z,94949.03
2022-11-28T13:51:31.547Z,94946.56
2022-11-28T13:54:17.146Z,94945.31
2022-11-28T13:56:45.848Z,94951.75
2022-11-28T13:59:21.596Z,94942.13
2022-11-28T14:01:56.370Z,94938.63
2022-11-28T14:04:23.829Z,94942.44
2022-11-28T14:07:02.299Z,94941.97
2022-11-28T14:09:44.684Z,94948.31
2022-11-28T14:12:26.902Z,94949.22
2022-11-28T14:15:17.384Z,94944.66
2022-11-28T14:18:24.751Z,94943.69
2022-11-28T14:21:00.016Z,94944.22
2022-11-28T14:23:35.057Z,94941.28
2022-11-28T14:26:02.154Z,94934.13
2022-11-28T14:28:36.684Z,94937.25
2022-11-28T14:31:09.735Z,94943.88
2022-11-28T14:33:38.007Z,94949.97
2022-11-28T14:36:28.771Z,94938.16
2022-11-28T14:39:19.421Z,94940.44
2022-11-28T14:42:04.595Z,94942.78
2022-11-28T14:44:52.800Z,94943.03
2022-11-28T14:47:47.721Z,94950.28
2022-11-28T14:50:14.621Z,94946.00
2022-11-28T14:52:43.296Z,94956.50
2022-11-28T14:55:12.245Z,94949.94
2022-11-28T14:57:54.502Z,94954.56
2022-11-28T15:00:35.273Z,94952.75
2022-11-28T15:03:49.764Z,94956.91
2022-11-28T15:06:25.289Z,94946.94
2022-11-28T15:09:07.160Z,94956.31
2022-11-28T15:11:43.621Z,94955.34
2022-11-28T15:14:22.505Z,94951.06
2022-11-28T15:16:55.491Z,94943.72
2022-11-28T15:19:46.250Z,94949.94
2022-11-28T15:22:38.508Z,94942.41
2022-11-28T15:25:21.536Z,94943.09
2022-11-28T15:27:48.486Z,94945.72
2022-11-28T15:30:20.263Z,94944.44
2022-11-28T15:32:47.842Z,94938.03
2022-11-28T15:35:17.617Z,94943.63
2022-11-28T15:37:50.675Z,94947.22
2022-11-28T15:40:26.394Z,94937.72
2022-11-28T15:42:53.314Z,94942.50
2022-11-28T15:45:27.124Z,94939.41
2022-11-28T15:47:55.045Z,94939.19
2022-11-28T15:50:25.100Z,94940.22
2022-11-28T15:53:02.697Z,94935.31
2022-11-28T15:55:34.003Z,94931.53
2022-11-28T15:58:20.095Z,94937.13
2022-11-28T16:01:13.449Z,94941.38
2022-11-28T16:04:10.356Z,94942.94
2022-11-28T16:06:41.245Z,94933.88
2022-11-28T16:09:29.885Z,94930.25
2022-11-28T16:11:56.621Z,94935.03
2022-11-28T16:14:36.247Z,94932.56
2022-11-28T16:17:12.529Z,94931.94
2022-11-28T16:19:39.223Z,94931.78
2022-11-28T16:22:16.895Z,94929.41
2022-11-28T16:24:55.350Z,94926.84
2022-11-28T16:27:38.489Z,94930.31
2022-11-28T16:30:38.183Z,94932.19
2022-11-28T16:33:34.681Z,94925.72
2022-11-28T16:36:31.059Z,94923.94
2022-11-28T16:39:09.203Z,94923.78
2022-11-28T16:41:36.772Z,94924.28
2022-11-28T16:44:12.133Z,94923.94
2022-11-28T16:46:41.607Z,94929.84
2022-11-28T16:49:43.935Z,94919.94
2022-11-28T16:52:22.687Z,94931.16
2022-11-28T16:54:50.890Z,94930.53
2022-11-28T16:57:19.979Z,94923.19
2022-11-28T16:59:48.181Z,94928.09
2022-11-28T17:02:19.079Z,94927.00
2022-11-28T17:04:46.977Z,94929.16
2022-11-28T17:07:16.603Z,94927.19
2022-11-28T17:09:44.558Z,94926.19
2022-11-28T17:12:38.778Z,94922.22
2022-11-28T17:15:08.480Z,94926.28
2022-11-28T17:17:36.120Z,94921.88
2022-11-28T17:20:03.536Z,94918.75
2022-11-28T17:22:50.969Z,94926.13
2022-11-28T17:25:20.400Z,94922.03
2022-11-28T17:27:48.132Z,94914.69
2022-11-28T17:30:16.916Z,94916.66
2022-11-28T17:32:43.636Z,94921.63
2022-11-28T17:35:18.149Z,94918.53
2022-11-28T17:37:44.679Z,94933.13
2022-11-28T17:40:30.065Z,94922.63
2022-11-28T17:42:56.574Z,94918.53
2022-11-28T17:45:23.287Z,94921.78
2022-11-28T17:47:49.906Z,94921.94
2022-11-28T17:50:17.641Z,94926.88
2022-11-28T17:52:44.396Z,94930.81
2022-11-28T17:55:11.313Z,94930.63
2022-11-28T17:57:37.826Z,94927.47
2022-11-28T18:00:06.825Z,94931.06
2022-11-28T18:02:40.647Z,94931.59
2022-11-28T18:05:08.696Z,94932.59
2022-11-28T18:07:35.410Z,94934.59
2022-11-28T18:10:02.003Z,94932.63
2022-11-28T18:12:29.072Z,94936.09
2022-11-28T18:14:55.643Z,94937.88
2022-11-28T18:17:22.203Z,94937.88
2022-11-28T18:19:52.022Z,94938.34
2022-11-28T18:22:21.110Z,94936.03
2022-11-28T18:24:47.731Z,94926.03
2022-11-28T18:27:14.314Z,94933.09
2022-11-28T18:29:41.101Z,94937.22
2022-11-28T18:32:07.999Z,94942.63
2022-11-28T18:34:34.566Z,94929.69
2022-11-28T18:37:01.185Z,94922.44
2022-11-28T18:39:31.240Z,94930.16
2022-11-28T18:41:59.885Z,94931.81
2022-11-28T18:44:27.929Z,94925.06
2022-11-28T18:46:54.524Z,94926.75
2022-11-28T18:49:21.355Z,94935.06
2022-11-28T18:51:48.447Z,94934.75
2022-11-28T18:54:20.564Z,94936.41
2022-11-28T18:56:48.090Z,94939.50
2022-11-28T18:59:14.916Z,94933.47
2022-11-28T19:01:41.509Z,94937.06
2022-11-28T19:04:12.064Z,94932.00
2022-11-28T19:06:40.187Z,94934.13
2022-11-28T19:09:10.337Z,94943.34
2022-11-28T19:11:37.112Z,94942.81
2022-11-28T19:14:04.195Z,94943.78
2022-11-28T19:16:33.124Z,94946.28
2022-11-28T19:19:01.819Z,94948.41
2022-11-28T19:21:32.684Z,94946.47
2022-11-28T19:24:00.434Z,94947.09
2022-11-28T19:26:29.827Z,94949.38
2022-11-28T19:28:57.594Z,94944.59
2022-11-28T19:31:27.170Z,94948.56
2022-11-28T19:34:02.405Z,94944.00
2022-11-28T19:36:37.629Z,94952.81
2022-11-28T19:39:05.015Z,94947.44
2022-11-28T19:41:32.374Z,94947.25
2022-11-28T19:43:59.371Z,94948.25
2022-11-28T19:46:30.585Z,94945.78
2022-11-28T19:49:02.728Z,94946.28
2022-11-28T19:51:29.244Z,94946.59
2022-11-28T19:54:01.380Z,94951.53
2022-11-28T19:56:30.040Z,94950.38
2022-11-28T19:58:56.870Z,94956.59
2022-11-28T20:01:24.632Z,94949.88
2022-11-28T20:03:53.758Z,94951.19
2022-11-28T20:06:24.077Z,94957.91
2022-11-28T20:08:52.636Z,94950.38
2022-11-28T20:11:24.331Z,94955.31
2022-11-28T20:13:56.864Z,94964.00
2022-11-28T20:16:23.655Z,94967.59
2022-11-28T20:18:50.568Z,94964.00
2022-11-28T20:21:18.949Z,94964.47
2022-11-28T20:23:48.481Z,94967.91
2022-11-28T20:26:16.645Z,94969.88
2022-11-28T20:28:43.728Z,94970.69
2022-11-28T20:31:22.107Z,94972.19
2022-11-28T20:33:52.632Z,94973.97
2022-11-28T20:36:22.072Z,94970.84
2022-11-28T20:38:49.710Z,94967.91
2022-11-28T20:41:18.141Z,94974.63
2022-11-28T20:43:44.947Z,94971.03
2022-11-28T20:46:15.135Z,94975.78
2022-11-28T20:48:42.184Z,94978.91
2022-11-28T20:51:15.650Z,94973.00
2022-11-28T20:53:42.477Z,94973.00
2022-11-28T20:56:12.804Z,94979.34
2022-11-28T20:58:39.800Z,94978.41
2022-11-28T21:01:07.093Z,94982.34
2022-11-28T21:03:34.171Z,94981.38
2022-11-28T21:06:01.368Z,94983.97
2022-11-28T21:08:31.180Z,94981.50
2022-11-28T21:10:57.760Z,94977.09
2022-11-28T21:13:24.427Z,94981.66
2022-11-28T21:15:51.959Z,94979.03
2022-11-28T21:18:18.533Z,94983.13
2022-11-28T21:20:46.477Z,94982.16
2022-11-28T21:23:15.966Z,94979.41
2022-11-28T21:25:44.006Z,94985.44
2022-11-28T21:28:12.279Z,94984.28
2022-11-28T21:30:41.449Z,94980.53
2022-11-28T21:33:08.456Z,94987.59
2022-11-28T21:35:35.415Z,94987.91
2022-11-28T21:38:01.986Z,94981.03
2022-11-28T21:40:28.524Z,94983.31
2022-11-28T21:42:55.027Z,94982.81
2022-11-28T21:45:23.748Z,94981.53
2022-11-28T21:47:50.812Z,94990.22
2022-11-28T21:50:17.740Z,94980.06
2022-11-28T21:52:44.309Z,94980.56
2022-11-28T21:55:10.902Z,94981.03
2022-11-28T21:57:37.534Z,94985.13
2022-11-28T22:00:04.732Z,94988.88
2022-11-28T22:02:41.632Z,94978.72
2022-11-28T22:05:08.282Z,94989.06
2022-11-28T22:07:36.360Z,94985.13
2022-11-28T22:10:04.737Z,94981.53
2022-11-28T22:12:31.995Z,94983.50
2022-11-28T22:14:59.140Z,94979.06
2022-11-28T22:17:25.961Z,94986.75
2022-11-28T22:19:52.747Z,94987.59
2022-11-28T22:22:19.307Z,94985.63
2022-11-28T22:24:46.084Z,94984.97
2022-11-28T22:27:12.776Z,94986.44
2022-11-28T22:29:39.331Z,94987.59
2022-11-28T22:32:06.236Z,94988.41
2022-11-28T22:34:40.222Z,94990.03
2022-11-28T22:37:07.520Z,94992.84
2022-11-28T22:39:34.212Z,94994.31
2022-11-28T22:42:01.215Z,94991.50
2022-11-28T22:44:28.389Z,94986.75
2022-11-28T22:46:55.131Z,94985.13
2022-11-28T22:49:22.477Z,94985.59
2022-11-28T22:51:49.245Z,94989.38
2022-11-28T22:54:16.133Z,94991.03
2022-11-28T22:56:43.100Z,94994.94
2022-11-28T22:59:14.772Z,94996.28
2022-11-28T23:01:43.361Z,94989.56
2022-11-28T23:04:10.192Z,94990.34
2022-11-28T23:06:37.280Z,94987.09
2022-11-28T23:09:06.819Z,94984.13
2022-11-28T23:11:36.507Z,94983.50
2022-11-28T23:14:04.886Z,94983.31
2022-11-28T23:16:35.254Z,94978.41
2022-11-28T23:19:04.478Z,94979.06
2022-11-28T23:21:34.710Z,94980.22
2022-11-28T23:24:01.611Z,94979.53
2022-11-28T23:26:30.176Z,94980.06
2022-11-28T23:29:00.426Z,94973.84
2022-11-28T23:31:33.106Z,94972.69
2022-11-28T23:34:00.972Z,94973.84
2022-11-28T23:36:30.920Z,94972.84
2022-11-28T23:39:01.209Z,94976.28
2022-11-28T23:41:29.415Z,94975.94
2022-11-28T23:43:56.916Z,94984.13
2022-11-28T23:46:24.652Z,94983.81
2022-11-28T23:48:51.243Z,94979.88
2022-11-28T23:51:20.248Z,94978.72
2022-11-28T23:53:47.146Z,94985.78
2022-11-28T23:56:15.863Z,94983.16
2022-11-28T23:58:42.716Z,94983.16
